<?xml version="1.0" encoding="UTF-8" standalone="no" ?>
<gpx xmlns="http://www.topografix.com/GPX/1/1" xmlns:xsi="http://www.w3.org/2001/XMLSchema-instance" xsi:schemaLocation="http://www.topografix.com/GPX/1/1 http://www.topografix.com/GPX/1/1/gpx.xsd" version="1.1" creator="VisuGPX - https://www.visugpx.com">
  <metadata>
    <name>Jasse Bralard W + combe  JasseBralard</name>
    <desc><![CDATA[Jasse Bralard W + combe  JasseBralard]]></desc>
  </metadata>
  <wpt lat="45.13585" lon="5.92237">
    <ele>1954.74</ele>
    <name><![CDATA[0000185]]></name>
    <type><![CDATA[Point de départ]]></type>
  </wpt>
  <wpt lat="45.12552" lon="5.87563">
    <ele>1640.74</ele>
    <name><![CDATA[0000186]]></name>
    <desc><![CDATA[<p><br /><h3>Nom: Segment: 1</h3><br />Heure de départ: 02/25/2019 09:49<br/>Heure d'arrivée: 02/25/2019 16:26<br/>Distance: 11,7km (06:36)<br/>Temps déplacement: 02:23<br/>Vitesse moyenne: 1,77 km/h<br/>Vitesse moyenne mouv.: 4,91 km/h<br/>Vitesse Max.: 53,6 km/h<br/>Altitude minimale: 1605 m<br/>Altitude maximale: 2475 m<br/>Vitesse de montée: 314,4 m/h<br/>Vitesse de descente: -590 m/h<br/>Gain d'altitude: 1177 m<br/>Perte d'altitude: -1491 m<br/>Temps de montée: 03:44<br/>Temps de descente: 02:31<br/></p>]]></desc>
    <type><![CDATA[Point d'arrivée]]></type>
  </wpt>
  <trk>
    <name><![CDATA[2019-02-25 09:49]]></name>
    <desc><![CDATA[<p>Heure de départ: 02/25/2019 09:49<br/>Heure d'arrivée: 02/25/2019 16:26<br/>Distance: 11,7 km (06:36)<br/>Temps déplacement: 02:23<br/>Vitesse moyenne: 1,77 km/h<br/>Vitesse moyenne mouv.: 4,92 km/h<br/>Vitesse Max.: 53,6 km/h<br/>Altitude minimale: 1605 m<br/>Altitude maximale: 2475 m<br/>Vitesse de montée: 312,4 m/h<br/>Vitesse de descente: -517,5 m/h<br/>Gain d'altitude: 1169 m<br/>Perte d'altitude: -1473 m<br/>Temps de montée: 03:44<br/>Temps de descente: 02:50<br/></p><hr align="center" width="480" style="height: 2px; width: 517px"/>]]></desc>
    <trkseg>
      <trkpt lat="45.13585" lon="5.92237">
        <ele>1954.74</ele>
        <time>2019-02-25T08:49:32Z</time>
      </trkpt>
      <trkpt lat="45.136" lon="5.92256">
        <ele>1934.74</ele>
        <time>2019-02-25T08:50:11Z</time>
      </trkpt>
      <trkpt lat="45.13622" lon="5.9227">
        <ele>1932.74</ele>
        <time>2019-02-25T08:50:21Z</time>
      </trkpt>
      <trkpt lat="45.13639" lon="5.92282">
        <ele>1933.74</ele>
        <time>2019-02-25T08:50:27Z</time>
      </trkpt>
      <trkpt lat="45.13659" lon="5.92292">
        <ele>1936.74</ele>
        <time>2019-02-25T08:50:31Z</time>
      </trkpt>
      <trkpt lat="45.13679" lon="5.92293">
        <ele>1939.74</ele>
        <time>2019-02-25T08:50:35Z</time>
      </trkpt>
      <trkpt lat="45.13698" lon="5.9229">
        <ele>1940.74</ele>
        <time>2019-02-25T08:50:39Z</time>
      </trkpt>
      <trkpt lat="45.13715" lon="5.92284">
        <ele>1940.74</ele>
        <time>2019-02-25T08:50:45Z</time>
      </trkpt>
      <trkpt lat="45.13739" lon="5.9228">
        <ele>1939.74</ele>
        <time>2019-02-25T08:50:49Z</time>
      </trkpt>
      <trkpt lat="45.1376" lon="5.92274">
        <ele>1937.74</ele>
        <time>2019-02-25T08:50:53Z</time>
      </trkpt>
      <trkpt lat="45.13782" lon="5.92268">
        <ele>1934.74</ele>
        <time>2019-02-25T08:50:59Z</time>
      </trkpt>
      <trkpt lat="45.13803" lon="5.92269">
        <ele>1933.74</ele>
        <time>2019-02-25T08:51:05Z</time>
      </trkpt>
      <trkpt lat="45.13827" lon="5.92274">
        <ele>1930.74</ele>
        <time>2019-02-25T08:51:11Z</time>
      </trkpt>
      <trkpt lat="45.13846" lon="5.92296">
        <ele>1928.74</ele>
        <time>2019-02-25T08:51:17Z</time>
      </trkpt>
      <trkpt lat="45.13856" lon="5.92318">
        <ele>1916.74</ele>
        <time>2019-02-25T09:10:34Z</time>
      </trkpt>
      <trkpt lat="45.13866" lon="5.9234">
        <ele>1916.74</ele>
        <time>2019-02-25T09:11:46Z</time>
      </trkpt>
      <trkpt lat="45.13878" lon="5.92361">
        <ele>1918.74</ele>
        <time>2019-02-25T09:12:18Z</time>
      </trkpt>
      <trkpt lat="45.1388" lon="5.92389">
        <ele>1931.74</ele>
        <time>2019-02-25T09:12:52Z</time>
      </trkpt>
      <trkpt lat="45.13894" lon="5.92408">
        <ele>1941.74</ele>
        <time>2019-02-25T09:13:26Z</time>
      </trkpt>
      <trkpt lat="45.13911" lon="5.92414">
        <ele>1947.74</ele>
        <time>2019-02-25T09:14:02Z</time>
      </trkpt>
      <trkpt lat="45.1393" lon="5.92412">
        <ele>1956.74</ele>
        <time>2019-02-25T09:14:44Z</time>
      </trkpt>
      <trkpt lat="45.13948" lon="5.92418">
        <ele>1961.74</ele>
        <time>2019-02-25T09:15:16Z</time>
      </trkpt>
      <trkpt lat="45.13966" lon="5.92419">
        <ele>1968.74</ele>
        <time>2019-02-25T09:15:52Z</time>
      </trkpt>
      <trkpt lat="45.13981" lon="5.92434">
        <ele>1973.74</ele>
        <time>2019-02-25T09:16:26Z</time>
      </trkpt>
      <trkpt lat="45.13966" lon="5.92449">
        <ele>1982.74</ele>
        <time>2019-02-25T09:17:22Z</time>
      </trkpt>
      <trkpt lat="45.1395" lon="5.92461">
        <ele>1989.74</ele>
        <time>2019-02-25T09:18:12Z</time>
      </trkpt>
      <trkpt lat="45.1395" lon="5.92486">
        <ele>1998.74</ele>
        <time>2019-02-25T09:20:06Z</time>
      </trkpt>
      <trkpt lat="45.13968" lon="5.92482">
        <ele>2002.74</ele>
        <time>2019-02-25T09:21:06Z</time>
      </trkpt>
      <trkpt lat="45.1398" lon="5.92502">
        <ele>2016.74</ele>
        <time>2019-02-25T09:23:28Z</time>
      </trkpt>
      <trkpt lat="45.13974" lon="5.92527">
        <ele>2025.74</ele>
        <time>2019-02-25T09:24:30Z</time>
      </trkpt>
      <trkpt lat="45.13978" lon="5.92553">
        <ele>2029.74</ele>
        <time>2019-02-25T09:26:34Z</time>
      </trkpt>
      <trkpt lat="45.13984" lon="5.92579">
        <ele>2030.74</ele>
        <time>2019-02-25T09:27:04Z</time>
      </trkpt>
      <trkpt lat="45.13987" lon="5.92605">
        <ele>2034.74</ele>
        <time>2019-02-25T09:27:26Z</time>
      </trkpt>
      <trkpt lat="45.13991" lon="5.9263">
        <ele>2038.74</ele>
        <time>2019-02-25T09:27:52Z</time>
      </trkpt>
      <trkpt lat="45.13998" lon="5.92654">
        <ele>2044.74</ele>
        <time>2019-02-25T09:28:22Z</time>
      </trkpt>
      <trkpt lat="45.14001" lon="5.9268">
        <ele>2048.74</ele>
        <time>2019-02-25T09:29:02Z</time>
      </trkpt>
      <trkpt lat="45.1401" lon="5.92704">
        <ele>2055.74</ele>
        <time>2019-02-25T09:29:36Z</time>
      </trkpt>
      <trkpt lat="45.14015" lon="5.92729">
        <ele>2060.74</ele>
        <time>2019-02-25T09:30:14Z</time>
      </trkpt>
      <trkpt lat="45.14024" lon="5.92753">
        <ele>2068.74</ele>
        <time>2019-02-25T09:31:25Z</time>
      </trkpt>
      <trkpt lat="45.14028" lon="5.92777">
        <ele>2073.74</ele>
        <time>2019-02-25T09:32:07Z</time>
      </trkpt>
      <trkpt lat="45.14013" lon="5.92792">
        <ele>2073.74</ele>
        <time>2019-02-25T09:33:11Z</time>
      </trkpt>
      <trkpt lat="45.13996" lon="5.92801">
        <ele>2081.74</ele>
        <time>2019-02-25T09:33:41Z</time>
      </trkpt>
      <trkpt lat="45.14005" lon="5.92823">
        <ele>2085.74</ele>
        <time>2019-02-25T09:34:37Z</time>
      </trkpt>
      <trkpt lat="45.13993" lon="5.92844">
        <ele>2088.74</ele>
        <time>2019-02-25T09:35:28Z</time>
      </trkpt>
      <trkpt lat="45.13976" lon="5.92853">
        <ele>2094.74</ele>
        <time>2019-02-25T09:35:54Z</time>
      </trkpt>
      <trkpt lat="45.13974" lon="5.92879">
        <ele>2100.74</ele>
        <time>2019-02-25T09:36:54Z</time>
      </trkpt>
      <trkpt lat="45.13955" lon="5.92884">
        <ele>2108.74</ele>
        <time>2019-02-25T09:37:56Z</time>
      </trkpt>
      <trkpt lat="45.13965" lon="5.92906">
        <ele>2112.74</ele>
        <time>2019-02-25T09:38:32Z</time>
      </trkpt>
      <trkpt lat="45.13973" lon="5.92934">
        <ele>2119.74</ele>
        <time>2019-02-25T09:39:08Z</time>
      </trkpt>
      <trkpt lat="45.13955" lon="5.92934">
        <ele>2122.74</ele>
        <time>2019-02-25T09:39:58Z</time>
      </trkpt>
      <trkpt lat="45.13937" lon="5.92928">
        <ele>2130.74</ele>
        <time>2019-02-25T09:40:32Z</time>
      </trkpt>
      <trkpt lat="45.13919" lon="5.92919">
        <ele>2133.74</ele>
        <time>2019-02-25T09:41:06Z</time>
      </trkpt>
      <trkpt lat="45.13916" lon="5.92945">
        <ele>2141.74</ele>
        <time>2019-02-25T09:42:11Z</time>
      </trkpt>
      <trkpt lat="45.13898" lon="5.92953">
        <ele>2147.74</ele>
        <time>2019-02-25T09:43:07Z</time>
      </trkpt>
      <trkpt lat="45.13901" lon="5.92978">
        <ele>2152.74</ele>
        <time>2019-02-25T09:43:53Z</time>
      </trkpt>
      <trkpt lat="45.13895" lon="5.93003">
        <ele>2156.74</ele>
        <time>2019-02-25T09:44:29Z</time>
      </trkpt>
      <trkpt lat="45.13897" lon="5.93028">
        <ele>2158.74</ele>
        <time>2019-02-25T09:44:52Z</time>
      </trkpt>
      <trkpt lat="45.13903" lon="5.93054">
        <ele>2162.74</ele>
        <time>2019-02-25T09:45:16Z</time>
      </trkpt>
      <trkpt lat="45.13918" lon="5.9307">
        <ele>2159.74</ele>
        <time>2019-02-25T09:45:48Z</time>
      </trkpt>
      <trkpt lat="45.13936" lon="5.93082">
        <ele>2158.74</ele>
        <time>2019-02-25T09:46:10Z</time>
      </trkpt>
      <trkpt lat="45.13936" lon="5.93108">
        <ele>2158.74</ele>
        <time>2019-02-25T09:46:28Z</time>
      </trkpt>
      <trkpt lat="45.13922" lon="5.93125">
        <ele>2163.74</ele>
        <time>2019-02-25T09:46:58Z</time>
      </trkpt>
      <trkpt lat="45.13931" lon="5.93148">
        <ele>2169.74</ele>
        <time>2019-02-25T09:47:44Z</time>
      </trkpt>
      <trkpt lat="45.13928" lon="5.93174">
        <ele>2179.74</ele>
        <time>2019-02-25T09:48:12Z</time>
      </trkpt>
      <trkpt lat="45.13924" lon="5.93199">
        <ele>2179.74</ele>
        <time>2019-02-25T09:48:38Z</time>
      </trkpt>
      <trkpt lat="45.13941" lon="5.93214">
        <ele>2183.74</ele>
        <time>2019-02-25T09:49:12Z</time>
      </trkpt>
      <trkpt lat="45.13956" lon="5.9323">
        <ele>2185.74</ele>
        <time>2019-02-25T09:49:40Z</time>
      </trkpt>
      <trkpt lat="45.13956" lon="5.93256">
        <ele>2196.74</ele>
        <time>2019-02-25T09:50:20Z</time>
      </trkpt>
      <trkpt lat="45.13953" lon="5.93282">
        <ele>2214.74</ele>
        <time>2019-02-25T09:51:18Z</time>
      </trkpt>
      <trkpt lat="45.13949" lon="5.93307">
        <ele>2214.74</ele>
        <time>2019-02-25T09:51:48Z</time>
      </trkpt>
      <trkpt lat="45.13942" lon="5.93332">
        <ele>2214.74</ele>
        <time>2019-02-25T09:52:14Z</time>
      </trkpt>
      <trkpt lat="45.13931" lon="5.93355">
        <ele>2221.74</ele>
        <time>2019-02-25T09:52:58Z</time>
      </trkpt>
      <trkpt lat="45.13921" lon="5.93379">
        <ele>2224.74</ele>
        <time>2019-02-25T09:53:30Z</time>
      </trkpt>
      <trkpt lat="45.13906" lon="5.93394">
        <ele>2221.74</ele>
        <time>2019-02-25T09:53:56Z</time>
      </trkpt>
      <trkpt lat="45.13889" lon="5.93403">
        <ele>2228.74</ele>
        <time>2019-02-25T09:54:30Z</time>
      </trkpt>
      <trkpt lat="45.13871" lon="5.93401">
        <ele>2235.74</ele>
        <time>2019-02-25T09:54:54Z</time>
      </trkpt>
      <trkpt lat="45.13877" lon="5.93426">
        <ele>2238.74</ele>
        <time>2019-02-25T09:55:52Z</time>
      </trkpt>
      <trkpt lat="45.13891" lon="5.93442">
        <ele>2242.74</ele>
        <time>2019-02-25T09:56:22Z</time>
      </trkpt>
      <trkpt lat="45.13911" lon="5.93447">
        <ele>2245.74</ele>
        <time>2019-02-25T09:56:54Z</time>
      </trkpt>
      <trkpt lat="45.13931" lon="5.93442">
        <ele>2250.74</ele>
        <time>2019-02-25T09:57:19Z</time>
      </trkpt>
      <trkpt lat="45.13948" lon="5.93436">
        <ele>2254.74</ele>
        <time>2019-02-25T09:57:45Z</time>
      </trkpt>
      <trkpt lat="45.13965" lon="5.93427">
        <ele>2263.74</ele>
        <time>2019-02-25T09:58:07Z</time>
      </trkpt>
      <trkpt lat="45.13982" lon="5.93414">
        <ele>2264.74</ele>
        <time>2019-02-25T09:58:45Z</time>
      </trkpt>
      <trkpt lat="45.13982" lon="5.93439">
        <ele>2263.74</ele>
        <time>2019-02-25T09:59:29Z</time>
      </trkpt>
      <trkpt lat="45.13972" lon="5.93462">
        <ele>2295.74</ele>
        <time>2019-02-25T10:16:10Z</time>
      </trkpt>
      <trkpt lat="45.13968" lon="5.93488">
        <ele>2303.74</ele>
        <time>2019-02-25T10:17:11Z</time>
      </trkpt>
      <trkpt lat="45.13964" lon="5.93515">
        <ele>2309.74</ele>
        <time>2019-02-25T10:18:08Z</time>
      </trkpt>
      <trkpt lat="45.13982" lon="5.93517">
        <ele>2311.74</ele>
        <time>2019-02-25T10:19:22Z</time>
      </trkpt>
      <trkpt lat="45.13983" lon="5.93543">
        <ele>2315.74</ele>
        <time>2019-02-25T10:20:29Z</time>
      </trkpt>
      <trkpt lat="45.13975" lon="5.93567">
        <ele>2320.74</ele>
        <time>2019-02-25T10:21:28Z</time>
      </trkpt>
      <trkpt lat="45.13985" lon="5.9359">
        <ele>2343.74</ele>
        <time>2019-02-25T10:23:15Z</time>
      </trkpt>
      <trkpt lat="45.14001" lon="5.93601">
        <ele>2362.74</ele>
        <time>2019-02-25T10:24:56Z</time>
      </trkpt>
      <trkpt lat="45.14017" lon="5.93612">
        <ele>2375.74</ele>
        <time>2019-02-25T10:27:16Z</time>
      </trkpt>
      <trkpt lat="45.14034" lon="5.93625">
        <ele>2390.74</ele>
        <time>2019-02-25T10:29:00Z</time>
      </trkpt>
      <trkpt lat="45.14023" lon="5.93646">
        <ele>2403.74</ele>
        <time>2019-02-25T10:30:24Z</time>
      </trkpt>
      <trkpt lat="45.14041" lon="5.9365">
        <ele>2418.74</ele>
        <time>2019-02-25T10:31:34Z</time>
      </trkpt>
      <trkpt lat="45.14057" lon="5.93661">
        <ele>2425.74</ele>
        <time>2019-02-25T10:34:12Z</time>
      </trkpt>
      <trkpt lat="45.14063" lon="5.93684">
        <ele>2430.74</ele>
        <time>2019-02-25T10:37:10Z</time>
      </trkpt>
      <trkpt lat="45.14066" lon="5.93711">
        <ele>2438.74</ele>
        <time>2019-02-25T10:41:52Z</time>
      </trkpt>
      <trkpt lat="45.14071" lon="5.93736">
        <ele>2441.74</ele>
        <time>2019-02-25T10:42:59Z</time>
      </trkpt>
      <trkpt lat="45.14055" lon="5.93749">
        <ele>2450.74</ele>
        <time>2019-02-25T10:46:20Z</time>
      </trkpt>
      <trkpt lat="45.14038" lon="5.93742">
        <ele>2466.74</ele>
        <time>2019-02-25T10:49:06Z</time>
      </trkpt>
      <trkpt lat="45.14056" lon="5.93751">
        <ele>2475.74</ele>
        <time>2019-02-25T11:44:04Z</time>
      </trkpt>
      <trkpt lat="45.14074" lon="5.93758">
        <ele>2463.74</ele>
        <time>2019-02-25T11:44:24Z</time>
      </trkpt>
      <trkpt lat="45.14073" lon="5.93728">
        <ele>2447.74</ele>
        <time>2019-02-25T11:44:50Z</time>
      </trkpt>
      <trkpt lat="45.1408" lon="5.93703">
        <ele>2437.74</ele>
        <time>2019-02-25T11:45:08Z</time>
      </trkpt>
      <trkpt lat="45.14097" lon="5.93719">
        <ele>2434.74</ele>
        <time>2019-02-25T11:45:18Z</time>
      </trkpt>
      <trkpt lat="45.1411" lon="5.93738">
        <ele>2432.74</ele>
        <time>2019-02-25T11:45:28Z</time>
      </trkpt>
      <trkpt lat="45.14121" lon="5.93758">
        <ele>2429.74</ele>
        <time>2019-02-25T11:45:34Z</time>
      </trkpt>
      <trkpt lat="45.14134" lon="5.93782">
        <ele>2427.74</ele>
        <time>2019-02-25T11:45:42Z</time>
      </trkpt>
      <trkpt lat="45.14151" lon="5.93802">
        <ele>2425.74</ele>
        <time>2019-02-25T11:45:50Z</time>
      </trkpt>
      <trkpt lat="45.1417" lon="5.938">
        <ele>2421.74</ele>
        <time>2019-02-25T11:46:00Z</time>
      </trkpt>
      <trkpt lat="45.14189" lon="5.93781">
        <ele>2411.74</ele>
        <time>2019-02-25T11:46:06Z</time>
      </trkpt>
      <trkpt lat="45.14208" lon="5.93771">
        <ele>2398.74</ele>
        <time>2019-02-25T11:46:14Z</time>
      </trkpt>
      <trkpt lat="45.14223" lon="5.93757">
        <ele>2388.74</ele>
        <time>2019-02-25T11:46:20Z</time>
      </trkpt>
      <trkpt lat="45.14245" lon="5.93754">
        <ele>2378.74</ele>
        <time>2019-02-25T11:46:28Z</time>
      </trkpt>
      <trkpt lat="45.1426" lon="5.93768">
        <ele>2346.74</ele>
        <time>2019-02-25T11:48:00Z</time>
      </trkpt>
      <trkpt lat="45.14272" lon="5.93794">
        <ele>2344.74</ele>
        <time>2019-02-25T11:48:12Z</time>
      </trkpt>
      <trkpt lat="45.14292" lon="5.93805">
        <ele>2340.74</ele>
        <time>2019-02-25T11:48:28Z</time>
      </trkpt>
      <trkpt lat="45.14304" lon="5.93786">
        <ele>2319.74</ele>
        <time>2019-02-25T11:48:50Z</time>
      </trkpt>
      <trkpt lat="45.14317" lon="5.93767">
        <ele>2312.74</ele>
        <time>2019-02-25T11:49:04Z</time>
      </trkpt>
      <trkpt lat="45.14336" lon="5.93779">
        <ele>2294.74</ele>
        <time>2019-02-25T11:49:27Z</time>
      </trkpt>
      <trkpt lat="45.14354" lon="5.93778">
        <ele>2287.74</ele>
        <time>2019-02-25T11:49:37Z</time>
      </trkpt>
      <trkpt lat="45.14374" lon="5.93776">
        <ele>2277.74</ele>
        <time>2019-02-25T11:49:43Z</time>
      </trkpt>
      <trkpt lat="45.14377" lon="5.93802">
        <ele>2267.74</ele>
        <time>2019-02-25T11:49:57Z</time>
      </trkpt>
      <trkpt lat="45.14395" lon="5.93809">
        <ele>2251.74</ele>
        <time>2019-02-25T11:50:19Z</time>
      </trkpt>
      <trkpt lat="45.14391" lon="5.93835">
        <ele>2247.74</ele>
        <time>2019-02-25T11:50:27Z</time>
      </trkpt>
      <trkpt lat="45.14404" lon="5.93854">
        <ele>2238.74</ele>
        <time>2019-02-25T11:50:41Z</time>
      </trkpt>
      <trkpt lat="45.14423" lon="5.93849">
        <ele>2220.74</ele>
        <time>2019-02-25T11:51:57Z</time>
      </trkpt>
      <trkpt lat="45.14441" lon="5.9384">
        <ele>2214.74</ele>
        <time>2019-02-25T11:52:03Z</time>
      </trkpt>
      <trkpt lat="45.14466" lon="5.9384">
        <ele>2201.74</ele>
        <time>2019-02-25T11:52:11Z</time>
      </trkpt>
      <trkpt lat="45.14485" lon="5.93834">
        <ele>2188.74</ele>
        <time>2019-02-25T11:52:17Z</time>
      </trkpt>
      <trkpt lat="45.14485" lon="5.93803">
        <ele>2184.74</ele>
        <time>2019-02-25T11:52:21Z</time>
      </trkpt>
      <trkpt lat="45.1448" lon="5.93776">
        <ele>2180.74</ele>
        <time>2019-02-25T11:52:35Z</time>
      </trkpt>
      <trkpt lat="45.14491" lon="5.93799">
        <ele>2174.74</ele>
        <time>2019-02-25T11:53:03Z</time>
      </trkpt>
      <trkpt lat="45.14508" lon="5.93829">
        <ele>2170.74</ele>
        <time>2019-02-25T11:53:07Z</time>
      </trkpt>
      <trkpt lat="45.1453" lon="5.93846">
        <ele>2167.74</ele>
        <time>2019-02-25T11:53:13Z</time>
      </trkpt>
      <trkpt lat="45.14544" lon="5.93863">
        <ele>2167.74</ele>
        <time>2019-02-25T11:53:17Z</time>
      </trkpt>
      <trkpt lat="45.14564" lon="5.93886">
        <ele>2166.74</ele>
        <time>2019-02-25T11:53:21Z</time>
      </trkpt>
      <trkpt lat="45.14578" lon="5.93904">
        <ele>2165.74</ele>
        <time>2019-02-25T11:53:27Z</time>
      </trkpt>
      <trkpt lat="45.14592" lon="5.93928">
        <ele>2164.74</ele>
        <time>2019-02-25T11:53:35Z</time>
      </trkpt>
      <trkpt lat="45.14612" lon="5.93907">
        <ele>2151.74</ele>
        <time>2019-02-25T11:54:17Z</time>
      </trkpt>
      <trkpt lat="45.14635" lon="5.93906">
        <ele>2143.74</ele>
        <time>2019-02-25T11:54:25Z</time>
      </trkpt>
      <trkpt lat="45.14642" lon="5.93879">
        <ele>2125.74</ele>
        <time>2019-02-25T11:54:53Z</time>
      </trkpt>
      <trkpt lat="45.14647" lon="5.93851">
        <ele>2120.74</ele>
        <time>2019-02-25T11:54:59Z</time>
      </trkpt>
      <trkpt lat="45.14645" lon="5.93823">
        <ele>2115.74</ele>
        <time>2019-02-25T11:55:09Z</time>
      </trkpt>
      <trkpt lat="45.14639" lon="5.93797">
        <ele>2108.74</ele>
        <time>2019-02-25T11:55:25Z</time>
      </trkpt>
      <trkpt lat="45.14648" lon="5.93771">
        <ele>2102.74</ele>
        <time>2019-02-25T11:55:37Z</time>
      </trkpt>
      <trkpt lat="45.14643" lon="5.93745">
        <ele>2100.74</ele>
        <time>2019-02-25T11:55:43Z</time>
      </trkpt>
      <trkpt lat="45.1465" lon="5.93717">
        <ele>2092.74</ele>
        <time>2019-02-25T11:55:52Z</time>
      </trkpt>
      <trkpt lat="45.14634" lon="5.93731">
        <ele>2074.74</ele>
        <time>2019-02-25T11:57:49Z</time>
      </trkpt>
      <trkpt lat="45.14655" lon="5.93716">
        <ele>2069.74</ele>
        <time>2019-02-25T11:57:57Z</time>
      </trkpt>
      <trkpt lat="45.14671" lon="5.93704">
        <ele>2065.74</ele>
        <time>2019-02-25T11:58:01Z</time>
      </trkpt>
      <trkpt lat="45.14677" lon="5.93664">
        <ele>2060.74</ele>
        <time>2019-02-25T11:58:07Z</time>
      </trkpt>
      <trkpt lat="45.14688" lon="5.93638">
        <ele>2055.74</ele>
        <time>2019-02-25T11:58:11Z</time>
      </trkpt>
      <trkpt lat="45.14679" lon="5.93615">
        <ele>2049.74</ele>
        <time>2019-02-25T11:58:15Z</time>
      </trkpt>
      <trkpt lat="45.14703" lon="5.9361">
        <ele>2048.74</ele>
        <time>2019-02-25T11:58:19Z</time>
      </trkpt>
      <trkpt lat="45.14722" lon="5.93596">
        <ele>2048.74</ele>
        <time>2019-02-25T11:58:23Z</time>
      </trkpt>
      <trkpt lat="45.1473" lon="5.93572">
        <ele>2042.74</ele>
        <time>2019-02-25T11:58:29Z</time>
      </trkpt>
      <trkpt lat="45.14737" lon="5.93544">
        <ele>2036.74</ele>
        <time>2019-02-25T11:58:35Z</time>
      </trkpt>
      <trkpt lat="45.14723" lon="5.93523">
        <ele>2030.74</ele>
        <time>2019-02-25T11:58:39Z</time>
      </trkpt>
      <trkpt lat="45.14738" lon="5.93505">
        <ele>2021.74</ele>
        <time>2019-02-25T11:58:47Z</time>
      </trkpt>
      <trkpt lat="45.14739" lon="5.93477">
        <ele>2016.74</ele>
        <time>2019-02-25T11:58:51Z</time>
      </trkpt>
      <trkpt lat="45.14765" lon="5.93442">
        <ele>2010.74</ele>
        <time>2019-02-25T11:58:56Z</time>
      </trkpt>
      <trkpt lat="45.14755" lon="5.93409">
        <ele>1998.74</ele>
        <time>2019-02-25T11:59:02Z</time>
      </trkpt>
      <trkpt lat="45.14741" lon="5.93385">
        <ele>1995.74</ele>
        <time>2019-02-25T11:59:08Z</time>
      </trkpt>
      <trkpt lat="45.14722" lon="5.93369">
        <ele>1989.74</ele>
        <time>2019-02-25T11:59:18Z</time>
      </trkpt>
      <trkpt lat="45.147" lon="5.93364">
        <ele>1983.74</ele>
        <time>2019-02-25T12:00:00Z</time>
      </trkpt>
      <trkpt lat="45.14686" lon="5.93343">
        <ele>1982.74</ele>
        <time>2019-02-25T12:00:06Z</time>
      </trkpt>
      <trkpt lat="45.14685" lon="5.93315">
        <ele>1978.74</ele>
        <time>2019-02-25T12:00:12Z</time>
      </trkpt>
      <trkpt lat="45.14684" lon="5.93286">
        <ele>1977.74</ele>
        <time>2019-02-25T12:00:26Z</time>
      </trkpt>
      <trkpt lat="45.1469" lon="5.93255">
        <ele>1972.74</ele>
        <time>2019-02-25T12:00:34Z</time>
      </trkpt>
      <trkpt lat="45.14692" lon="5.93228">
        <ele>1969.74</ele>
        <time>2019-02-25T12:00:42Z</time>
      </trkpt>
      <trkpt lat="45.14682" lon="5.93191">
        <ele>1967.74</ele>
        <time>2019-02-25T12:00:52Z</time>
      </trkpt>
      <trkpt lat="45.1467" lon="5.93163">
        <ele>1965.74</ele>
        <time>2019-02-25T12:00:58Z</time>
      </trkpt>
      <trkpt lat="45.1466" lon="5.9314">
        <ele>1964.74</ele>
        <time>2019-02-25T12:01:02Z</time>
      </trkpt>
      <trkpt lat="45.14647" lon="5.93112">
        <ele>1964.74</ele>
        <time>2019-02-25T12:01:10Z</time>
      </trkpt>
      <trkpt lat="45.14634" lon="5.93078">
        <ele>1963.74</ele>
        <time>2019-02-25T12:01:16Z</time>
      </trkpt>
      <trkpt lat="45.14624" lon="5.93052">
        <ele>1961.74</ele>
        <time>2019-02-25T12:01:26Z</time>
      </trkpt>
      <trkpt lat="45.14613" lon="5.93028">
        <ele>1959.74</ele>
        <time>2019-02-25T12:01:32Z</time>
      </trkpt>
      <trkpt lat="45.14605" lon="5.93005">
        <ele>1958.74</ele>
        <time>2019-02-25T12:01:38Z</time>
      </trkpt>
      <trkpt lat="45.1458" lon="5.92999">
        <ele>1957.74</ele>
        <time>2019-02-25T12:02:36Z</time>
      </trkpt>
      <trkpt lat="45.14564" lon="5.9298">
        <ele>1956.74</ele>
        <time>2019-02-25T12:02:42Z</time>
      </trkpt>
      <trkpt lat="45.1456" lon="5.92955">
        <ele>1948.74</ele>
        <time>2019-02-25T12:04:00Z</time>
      </trkpt>
      <trkpt lat="45.14551" lon="5.92929">
        <ele>1947.74</ele>
        <time>2019-02-25T12:04:08Z</time>
      </trkpt>
      <trkpt lat="45.14535" lon="5.92905">
        <ele>1944.74</ele>
        <time>2019-02-25T12:04:18Z</time>
      </trkpt>
      <trkpt lat="45.14518" lon="5.92885">
        <ele>1943.74</ele>
        <time>2019-02-25T12:04:26Z</time>
      </trkpt>
      <trkpt lat="45.14502" lon="5.92869">
        <ele>1941.74</ele>
        <time>2019-02-25T12:04:34Z</time>
      </trkpt>
      <trkpt lat="45.1449" lon="5.92848">
        <ele>1933.74</ele>
        <time>2019-02-25T12:07:48Z</time>
      </trkpt>
      <trkpt lat="45.14509" lon="5.9283">
        <ele>1924.74</ele>
        <time>2019-02-25T12:07:56Z</time>
      </trkpt>
      <trkpt lat="45.14497" lon="5.92806">
        <ele>1917.74</ele>
        <time>2019-02-25T12:08:02Z</time>
      </trkpt>
      <trkpt lat="45.14521" lon="5.92806">
        <ele>1910.74</ele>
        <time>2019-02-25T12:08:10Z</time>
      </trkpt>
      <trkpt lat="45.14507" lon="5.92779">
        <ele>1898.74</ele>
        <time>2019-02-25T12:08:16Z</time>
      </trkpt>
      <trkpt lat="45.14519" lon="5.92754">
        <ele>1893.74</ele>
        <time>2019-02-25T12:08:24Z</time>
      </trkpt>
      <trkpt lat="45.14529" lon="5.92732">
        <ele>1883.74</ele>
        <time>2019-02-25T12:08:30Z</time>
      </trkpt>
      <trkpt lat="45.14545" lon="5.92715">
        <ele>1871.74</ele>
        <time>2019-02-25T12:08:38Z</time>
      </trkpt>
      <trkpt lat="45.14565" lon="5.92714">
        <ele>1845.74</ele>
        <time>2019-02-25T12:09:36Z</time>
      </trkpt>
      <trkpt lat="45.1459" lon="5.92712">
        <ele>1838.74</ele>
        <time>2019-02-25T12:09:44Z</time>
      </trkpt>
      <trkpt lat="45.14611" lon="5.92693">
        <ele>1832.74</ele>
        <time>2019-02-25T12:09:50Z</time>
      </trkpt>
      <trkpt lat="45.14628" lon="5.92675">
        <ele>1824.74</ele>
        <time>2019-02-25T12:09:56Z</time>
      </trkpt>
      <trkpt lat="45.14633" lon="5.92643">
        <ele>1809.74</ele>
        <time>2019-02-25T12:10:08Z</time>
      </trkpt>
      <trkpt lat="45.14641" lon="5.92619">
        <ele>1804.74</ele>
        <time>2019-02-25T12:10:14Z</time>
      </trkpt>
      <trkpt lat="45.14636" lon="5.92589">
        <ele>1795.74</ele>
        <time>2019-02-25T12:10:22Z</time>
      </trkpt>
      <trkpt lat="45.14658" lon="5.9261">
        <ele>1787.74</ele>
        <time>2019-02-25T12:10:30Z</time>
      </trkpt>
      <trkpt lat="45.14668" lon="5.92583">
        <ele>1776.74</ele>
        <time>2019-02-25T12:10:36Z</time>
      </trkpt>
      <trkpt lat="45.14686" lon="5.92573">
        <ele>1769.74</ele>
        <time>2019-02-25T12:10:42Z</time>
      </trkpt>
      <trkpt lat="45.14703" lon="5.92546">
        <ele>1761.74</ele>
        <time>2019-02-25T12:10:48Z</time>
      </trkpt>
      <trkpt lat="45.14702" lon="5.92518">
        <ele>1754.74</ele>
        <time>2019-02-25T12:10:52Z</time>
      </trkpt>
      <trkpt lat="45.14708" lon="5.92494">
        <ele>1718.74</ele>
        <time>2019-02-25T12:12:34Z</time>
      </trkpt>
      <trkpt lat="45.14706" lon="5.92466">
        <ele>1713.74</ele>
        <time>2019-02-25T12:12:40Z</time>
      </trkpt>
      <trkpt lat="45.14708" lon="5.92431">
        <ele>1708.74</ele>
        <time>2019-02-25T12:12:47Z</time>
      </trkpt>
      <trkpt lat="45.14704" lon="5.92404">
        <ele>1704.74</ele>
        <time>2019-02-25T12:12:53Z</time>
      </trkpt>
      <trkpt lat="45.14688" lon="5.9238">
        <ele>1699.74</ele>
        <time>2019-02-25T12:13:01Z</time>
      </trkpt>
      <trkpt lat="45.14685" lon="5.92354">
        <ele>1693.74</ele>
        <time>2019-02-25T12:13:07Z</time>
      </trkpt>
      <trkpt lat="45.14684" lon="5.92323">
        <ele>1687.74</ele>
        <time>2019-02-25T12:13:13Z</time>
      </trkpt>
      <trkpt lat="45.14668" lon="5.92307">
        <ele>1659.74</ele>
        <time>2019-02-25T12:14:07Z</time>
      </trkpt>
      <trkpt lat="45.14655" lon="5.92279">
        <ele>1657.74</ele>
        <time>2019-02-25T12:14:11Z</time>
      </trkpt>
      <trkpt lat="45.14653" lon="5.92249">
        <ele>1652.74</ele>
        <time>2019-02-25T12:14:19Z</time>
      </trkpt>
      <trkpt lat="45.14643" lon="5.92228">
        <ele>1648.74</ele>
        <time>2019-02-25T12:14:31Z</time>
      </trkpt>
      <trkpt lat="45.14641" lon="5.92202">
        <ele>1646.74</ele>
        <time>2019-02-25T12:14:36Z</time>
      </trkpt>
      <trkpt lat="45.14631" lon="5.92172">
        <ele>1642.74</ele>
        <time>2019-02-25T12:14:44Z</time>
      </trkpt>
      <trkpt lat="45.14627" lon="5.92147">
        <ele>1636.74</ele>
        <time>2019-02-25T12:14:54Z</time>
      </trkpt>
      <trkpt lat="45.1463" lon="5.92117">
        <ele>1630.74</ele>
        <time>2019-02-25T12:15:02Z</time>
      </trkpt>
      <trkpt lat="45.14619" lon="5.92094">
        <ele>1624.74</ele>
        <time>2019-02-25T12:15:08Z</time>
      </trkpt>
      <trkpt lat="45.14604" lon="5.92071">
        <ele>1621.74</ele>
        <time>2019-02-25T12:15:36Z</time>
      </trkpt>
      <trkpt lat="45.14588" lon="5.92054">
        <ele>1613.74</ele>
        <time>2019-02-25T12:17:08Z</time>
      </trkpt>
      <trkpt lat="45.14571" lon="5.92035">
        <ele>1611.74</ele>
        <time>2019-02-25T12:17:26Z</time>
      </trkpt>
      <trkpt lat="45.14559" lon="5.92012">
        <ele>1613.74</ele>
        <time>2019-02-25T12:17:40Z</time>
      </trkpt>
      <trkpt lat="45.14544" lon="5.91991">
        <ele>1613.74</ele>
        <time>2019-02-25T12:17:48Z</time>
      </trkpt>
      <trkpt lat="45.14525" lon="5.9198">
        <ele>1612.74</ele>
        <time>2019-02-25T12:17:56Z</time>
      </trkpt>
      <trkpt lat="45.14518" lon="5.91954">
        <ele>1610.74</ele>
        <time>2019-02-25T12:18:24Z</time>
      </trkpt>
      <trkpt lat="45.14511" lon="5.9193">
        <ele>1605.74</ele>
        <time>2019-02-25T12:35:46Z</time>
      </trkpt>
      <trkpt lat="45.14493" lon="5.91934">
        <ele>1610.74</ele>
        <time>2019-02-25T12:37:26Z</time>
      </trkpt>
      <trkpt lat="45.14477" lon="5.9192">
        <ele>1618.74</ele>
        <time>2019-02-25T12:38:14Z</time>
      </trkpt>
      <trkpt lat="45.14469" lon="5.91896">
        <ele>1627.74</ele>
        <time>2019-02-25T12:39:02Z</time>
      </trkpt>
      <trkpt lat="45.14456" lon="5.91878">
        <ele>1632.74</ele>
        <time>2019-02-25T12:39:56Z</time>
      </trkpt>
      <trkpt lat="45.14447" lon="5.91853">
        <ele>1639.74</ele>
        <time>2019-02-25T12:40:40Z</time>
      </trkpt>
      <trkpt lat="45.1444" lon="5.91827">
        <ele>1641.74</ele>
        <time>2019-02-25T12:41:16Z</time>
      </trkpt>
      <trkpt lat="45.14424" lon="5.91814">
        <ele>1650.74</ele>
        <time>2019-02-25T12:42:44Z</time>
      </trkpt>
      <trkpt lat="45.14412" lon="5.91794">
        <ele>1659.74</ele>
        <time>2019-02-25T12:44:02Z</time>
      </trkpt>
      <trkpt lat="45.14409" lon="5.91768">
        <ele>1663.74</ele>
        <time>2019-02-25T12:44:30Z</time>
      </trkpt>
      <trkpt lat="45.14395" lon="5.91751">
        <ele>1672.74</ele>
        <time>2019-02-25T12:45:52Z</time>
      </trkpt>
      <trkpt lat="45.1438" lon="5.91735">
        <ele>1681.74</ele>
        <time>2019-02-25T12:47:12Z</time>
      </trkpt>
      <trkpt lat="45.14372" lon="5.91759">
        <ele>1686.74</ele>
        <time>2019-02-25T12:47:52Z</time>
      </trkpt>
      <trkpt lat="45.1436" lon="5.9174">
        <ele>1695.74</ele>
        <time>2019-02-25T12:48:58Z</time>
      </trkpt>
      <trkpt lat="45.14342" lon="5.9174">
        <ele>1707.74</ele>
        <time>2019-02-25T12:50:37Z</time>
      </trkpt>
      <trkpt lat="45.14337" lon="5.91765">
        <ele>1711.74</ele>
        <time>2019-02-25T12:51:17Z</time>
      </trkpt>
      <trkpt lat="45.14326" lon="5.91744">
        <ele>1720.74</ele>
        <time>2019-02-25T12:52:25Z</time>
      </trkpt>
      <trkpt lat="45.14314" lon="5.91763">
        <ele>1727.74</ele>
        <time>2019-02-25T12:53:29Z</time>
      </trkpt>
      <trkpt lat="45.14305" lon="5.91786">
        <ele>1732.74</ele>
        <time>2019-02-25T12:55:23Z</time>
      </trkpt>
      <trkpt lat="45.14295" lon="5.91808">
        <ele>1736.74</ele>
        <time>2019-02-25T12:55:53Z</time>
      </trkpt>
      <trkpt lat="45.14278" lon="5.91823">
        <ele>1742.74</ele>
        <time>2019-02-25T12:56:57Z</time>
      </trkpt>
      <trkpt lat="45.14263" lon="5.91808">
        <ele>1759.74</ele>
        <time>2019-02-25T12:58:43Z</time>
      </trkpt>
      <trkpt lat="45.14257" lon="5.91832">
        <ele>1763.74</ele>
        <time>2019-02-25T12:59:25Z</time>
      </trkpt>
      <trkpt lat="45.14241" lon="5.91846">
        <ele>1772.74</ele>
        <time>2019-02-25T13:01:19Z</time>
      </trkpt>
      <trkpt lat="45.14236" lon="5.91873">
        <ele>1778.74</ele>
        <time>2019-02-25T13:02:01Z</time>
      </trkpt>
      <trkpt lat="45.14233" lon="5.91899">
        <ele>1784.74</ele>
        <time>2019-02-25T13:02:49Z</time>
      </trkpt>
      <trkpt lat="45.14234" lon="5.91926">
        <ele>1786.74</ele>
        <time>2019-02-25T13:03:13Z</time>
      </trkpt>
      <trkpt lat="45.14233" lon="5.91954">
        <ele>1788.74</ele>
        <time>2019-02-25T13:03:43Z</time>
      </trkpt>
      <trkpt lat="45.14215" lon="5.91961">
        <ele>1798.74</ele>
        <time>2019-02-25T13:04:47Z</time>
      </trkpt>
      <trkpt lat="45.14211" lon="5.91986">
        <ele>1800.74</ele>
        <time>2019-02-25T13:05:22Z</time>
      </trkpt>
      <trkpt lat="45.14197" lon="5.91969">
        <ele>1809.74</ele>
        <time>2019-02-25T13:05:54Z</time>
      </trkpt>
      <trkpt lat="45.14186" lon="5.91989">
        <ele>1811.74</ele>
        <time>2019-02-25T13:06:44Z</time>
      </trkpt>
      <trkpt lat="45.14168" lon="5.91986">
        <ele>1827.74</ele>
        <time>2019-02-25T13:07:55Z</time>
      </trkpt>
      <trkpt lat="45.14156" lon="5.92007">
        <ele>1830.74</ele>
        <time>2019-02-25T13:08:59Z</time>
      </trkpt>
      <trkpt lat="45.14151" lon="5.92032">
        <ele>1834.74</ele>
        <time>2019-02-25T13:09:29Z</time>
      </trkpt>
      <trkpt lat="45.14135" lon="5.92046">
        <ele>1838.74</ele>
        <time>2019-02-25T13:10:03Z</time>
      </trkpt>
      <trkpt lat="45.14121" lon="5.92064">
        <ele>1839.74</ele>
        <time>2019-02-25T13:10:31Z</time>
      </trkpt>
      <trkpt lat="45.14122" lon="5.9209">
        <ele>1841.74</ele>
        <time>2019-02-25T13:10:55Z</time>
      </trkpt>
      <trkpt lat="45.14133" lon="5.92113">
        <ele>1850.74</ele>
        <time>2019-02-25T13:11:27Z</time>
      </trkpt>
      <trkpt lat="45.14135" lon="5.92139">
        <ele>1850.74</ele>
        <time>2019-02-25T13:12:03Z</time>
      </trkpt>
      <trkpt lat="45.14132" lon="5.92165">
        <ele>1854.74</ele>
        <time>2019-02-25T13:19:58Z</time>
      </trkpt>
      <trkpt lat="45.14117" lon="5.92179">
        <ele>1857.74</ele>
        <time>2019-02-25T13:20:20Z</time>
      </trkpt>
      <trkpt lat="45.14099" lon="5.92183">
        <ele>1859.74</ele>
        <time>2019-02-25T13:20:42Z</time>
      </trkpt>
      <trkpt lat="45.1408" lon="5.92177">
        <ele>1859.74</ele>
        <time>2019-02-25T13:21:02Z</time>
      </trkpt>
      <trkpt lat="45.14062" lon="5.9217">
        <ele>1864.74</ele>
        <time>2019-02-25T13:21:28Z</time>
      </trkpt>
      <trkpt lat="45.14044" lon="5.92163">
        <ele>1865.74</ele>
        <time>2019-02-25T13:21:52Z</time>
      </trkpt>
      <trkpt lat="45.14037" lon="5.92187">
        <ele>1867.74</ele>
        <time>2019-02-25T13:22:32Z</time>
      </trkpt>
      <trkpt lat="45.1402" lon="5.92177">
        <ele>1874.74</ele>
        <time>2019-02-25T13:23:02Z</time>
      </trkpt>
      <trkpt lat="45.14021" lon="5.92204">
        <ele>1879.74</ele>
        <time>2019-02-25T13:23:34Z</time>
      </trkpt>
      <trkpt lat="45.1401" lon="5.92225">
        <ele>1885.74</ele>
        <time>2019-02-25T13:24:34Z</time>
      </trkpt>
      <trkpt lat="45.13995" lon="5.92212">
        <ele>1895.74</ele>
        <time>2019-02-25T13:25:22Z</time>
      </trkpt>
      <trkpt lat="45.13975" lon="5.92205">
        <ele>1898.74</ele>
        <time>2019-02-25T13:25:55Z</time>
      </trkpt>
      <trkpt lat="45.13955" lon="5.92201">
        <ele>1906.74</ele>
        <time>2019-02-25T13:26:31Z</time>
      </trkpt>
      <trkpt lat="45.13936" lon="5.92202">
        <ele>1909.74</ele>
        <time>2019-02-25T13:27:06Z</time>
      </trkpt>
      <trkpt lat="45.13918" lon="5.92199">
        <ele>1913.74</ele>
        <time>2019-02-25T13:27:30Z</time>
      </trkpt>
      <trkpt lat="45.139" lon="5.92202">
        <ele>1917.74</ele>
        <time>2019-02-25T13:27:54Z</time>
      </trkpt>
      <trkpt lat="45.13882" lon="5.92204">
        <ele>1918.74</ele>
        <time>2019-02-25T13:28:14Z</time>
      </trkpt>
      <trkpt lat="45.13863" lon="5.92211">
        <ele>1919.74</ele>
        <time>2019-02-25T13:28:36Z</time>
      </trkpt>
      <trkpt lat="45.13846" lon="5.92221">
        <ele>1922.74</ele>
        <time>2019-02-25T13:29:00Z</time>
      </trkpt>
      <trkpt lat="45.13827" lon="5.92227">
        <ele>1921.74</ele>
        <time>2019-02-25T13:29:16Z</time>
      </trkpt>
      <trkpt lat="45.13809" lon="5.9223">
        <ele>1922.74</ele>
        <time>2019-02-25T13:29:36Z</time>
      </trkpt>
      <trkpt lat="45.13789" lon="5.92227">
        <ele>1926.74</ele>
        <time>2019-02-25T13:29:58Z</time>
      </trkpt>
      <trkpt lat="45.1377" lon="5.92226">
        <ele>1927.74</ele>
        <time>2019-02-25T13:30:22Z</time>
      </trkpt>
      <trkpt lat="45.13751" lon="5.92217">
        <ele>1929.74</ele>
        <time>2019-02-25T13:30:48Z</time>
      </trkpt>
      <trkpt lat="45.13735" lon="5.92207">
        <ele>1928.74</ele>
        <time>2019-02-25T13:31:06Z</time>
      </trkpt>
      <trkpt lat="45.13716" lon="5.92211">
        <ele>1933.74</ele>
        <time>2019-02-25T13:31:28Z</time>
      </trkpt>
      <trkpt lat="45.13698" lon="5.92209">
        <ele>1939.74</ele>
        <time>2019-02-25T13:31:48Z</time>
      </trkpt>
      <trkpt lat="45.13679" lon="5.92208">
        <ele>1943.74</ele>
        <time>2019-02-25T13:32:12Z</time>
      </trkpt>
      <trkpt lat="45.13662" lon="5.92197">
        <ele>1947.74</ele>
        <time>2019-02-25T13:32:35Z</time>
      </trkpt>
      <trkpt lat="45.13644" lon="5.92187">
        <ele>1946.74</ele>
        <time>2019-02-25T13:32:57Z</time>
      </trkpt>
      <trkpt lat="45.13625" lon="5.9218">
        <ele>1942.74</ele>
        <time>2019-02-25T13:33:19Z</time>
      </trkpt>
      <trkpt lat="45.13604" lon="5.92183">
        <ele>1940.74</ele>
        <time>2019-02-25T13:33:37Z</time>
      </trkpt>
      <trkpt lat="45.13584" lon="5.92178">
        <ele>1949.74</ele>
        <time>2019-02-25T13:33:56Z</time>
      </trkpt>
      <trkpt lat="45.13568" lon="5.92168">
        <ele>1953.74</ele>
        <time>2019-02-25T13:34:16Z</time>
      </trkpt>
      <trkpt lat="45.13548" lon="5.92165">
        <ele>1954.74</ele>
        <time>2019-02-25T13:34:32Z</time>
      </trkpt>
      <trkpt lat="45.13528" lon="5.92163">
        <ele>1946.74</ele>
        <time>2019-02-25T13:34:56Z</time>
      </trkpt>
      <trkpt lat="45.13509" lon="5.92157">
        <ele>1949.74</ele>
        <time>2019-02-25T13:35:22Z</time>
      </trkpt>
      <trkpt lat="45.13491" lon="5.92148">
        <ele>1955.74</ele>
        <time>2019-02-25T13:35:46Z</time>
      </trkpt>
      <trkpt lat="45.13473" lon="5.92144">
        <ele>1957.74</ele>
        <time>2019-02-25T13:36:08Z</time>
      </trkpt>
      <trkpt lat="45.13454" lon="5.92143">
        <ele>1959.74</ele>
        <time>2019-02-25T13:36:27Z</time>
      </trkpt>
      <trkpt lat="45.13435" lon="5.92144">
        <ele>1961.74</ele>
        <time>2019-02-25T13:36:49Z</time>
      </trkpt>
      <trkpt lat="45.13417" lon="5.92146">
        <ele>1961.74</ele>
        <time>2019-02-25T13:37:11Z</time>
      </trkpt>
      <trkpt lat="45.13399" lon="5.92145">
        <ele>1962.74</ele>
        <time>2019-02-25T13:37:31Z</time>
      </trkpt>
      <trkpt lat="45.13381" lon="5.92138">
        <ele>1969.74</ele>
        <time>2019-02-25T13:37:57Z</time>
      </trkpt>
      <trkpt lat="45.13363" lon="5.9213">
        <ele>1976.74</ele>
        <time>2019-02-25T13:38:33Z</time>
      </trkpt>
      <trkpt lat="45.13347" lon="5.92112">
        <ele>1984.74</ele>
        <time>2019-02-25T13:39:05Z</time>
      </trkpt>
      <trkpt lat="45.13335" lon="5.9209">
        <ele>1987.74</ele>
        <time>2019-02-25T13:39:31Z</time>
      </trkpt>
      <trkpt lat="45.1332" lon="5.92074">
        <ele>1988.74</ele>
        <time>2019-02-25T13:40:01Z</time>
      </trkpt>
      <trkpt lat="45.13305" lon="5.92059">
        <ele>1990.74</ele>
        <time>2019-02-25T13:40:21Z</time>
      </trkpt>
      <trkpt lat="45.13288" lon="5.92048">
        <ele>1992.74</ele>
        <time>2019-02-25T13:40:41Z</time>
      </trkpt>
      <trkpt lat="45.13273" lon="5.92028">
        <ele>1995.74</ele>
        <time>2019-02-25T13:41:02Z</time>
      </trkpt>
      <trkpt lat="45.13259" lon="5.92009">
        <ele>1995.74</ele>
        <time>2019-02-25T13:41:20Z</time>
      </trkpt>
      <trkpt lat="45.13245" lon="5.91992">
        <ele>1995.74</ele>
        <time>2019-02-25T13:41:34Z</time>
      </trkpt>
      <trkpt lat="45.13231" lon="5.91973">
        <ele>1997.74</ele>
        <time>2019-02-25T13:41:50Z</time>
      </trkpt>
      <trkpt lat="45.13216" lon="5.91958">
        <ele>1997.74</ele>
        <time>2019-02-25T13:42:10Z</time>
      </trkpt>
      <trkpt lat="45.13202" lon="5.9194">
        <ele>1998.74</ele>
        <time>2019-02-25T13:42:29Z</time>
      </trkpt>
      <trkpt lat="45.13184" lon="5.91934">
        <ele>1996.74</ele>
        <time>2019-02-25T13:42:45Z</time>
      </trkpt>
      <trkpt lat="45.13171" lon="5.91952">
        <ele>1997.74</ele>
        <time>2019-02-25T13:43:09Z</time>
      </trkpt>
      <trkpt lat="45.13157" lon="5.9197">
        <ele>2006.74</ele>
        <time>2019-02-25T13:43:37Z</time>
      </trkpt>
      <trkpt lat="45.13138" lon="5.91978">
        <ele>2007.74</ele>
        <time>2019-02-25T13:44:03Z</time>
      </trkpt>
      <trkpt lat="45.1312" lon="5.91988">
        <ele>2002.74</ele>
        <time>2019-02-25T13:44:21Z</time>
      </trkpt>
      <trkpt lat="45.13102" lon="5.91997">
        <ele>2009.74</ele>
        <time>2019-02-25T13:44:49Z</time>
      </trkpt>
      <trkpt lat="45.13083" lon="5.91998">
        <ele>2012.74</ele>
        <time>2019-02-25T13:45:25Z</time>
      </trkpt>
      <trkpt lat="45.13064" lon="5.91995">
        <ele>2020.74</ele>
        <time>2019-02-25T13:45:57Z</time>
      </trkpt>
      <trkpt lat="45.13045" lon="5.91993">
        <ele>2023.74</ele>
        <time>2019-02-25T13:46:28Z</time>
      </trkpt>
      <trkpt lat="45.13026" lon="5.91997">
        <ele>2025.74</ele>
        <time>2019-02-25T13:46:56Z</time>
      </trkpt>
      <trkpt lat="45.13009" lon="5.92005">
        <ele>2029.74</ele>
        <time>2019-02-25T13:47:30Z</time>
      </trkpt>
      <trkpt lat="45.12992" lon="5.92013">
        <ele>2033.74</ele>
        <time>2019-02-25T13:47:53Z</time>
      </trkpt>
      <trkpt lat="45.12974" lon="5.92004">
        <ele>2045.74</ele>
        <time>2019-02-25T13:48:29Z</time>
      </trkpt>
      <trkpt lat="45.12961" lon="5.91983">
        <ele>2051.74</ele>
        <time>2019-02-25T13:49:01Z</time>
      </trkpt>
      <trkpt lat="45.1295" lon="5.91962">
        <ele>2056.74</ele>
        <time>2019-02-25T13:49:39Z</time>
      </trkpt>
      <trkpt lat="45.12935" lon="5.91944">
        <ele>2059.74</ele>
        <time>2019-02-25T13:50:16Z</time>
      </trkpt>
      <trkpt lat="45.12919" lon="5.91929">
        <ele>2062.74</ele>
        <time>2019-02-25T13:50:50Z</time>
      </trkpt>
      <trkpt lat="45.12904" lon="5.91914">
        <ele>2067.74</ele>
        <time>2019-02-25T13:51:30Z</time>
      </trkpt>
      <trkpt lat="45.12904" lon="5.91941">
        <ele>2075.74</ele>
        <time>2019-02-25T13:53:15Z</time>
      </trkpt>
      <trkpt lat="45.12915" lon="5.91962">
        <ele>2079.74</ele>
        <time>2019-02-25T13:53:47Z</time>
      </trkpt>
      <trkpt lat="45.12897" lon="5.91963">
        <ele>2086.74</ele>
        <time>2019-02-25T13:54:37Z</time>
      </trkpt>
      <trkpt lat="45.12879" lon="5.91954">
        <ele>2094.74</ele>
        <time>2019-02-25T13:55:14Z</time>
      </trkpt>
      <trkpt lat="45.1286" lon="5.91952">
        <ele>2100.74</ele>
        <time>2019-02-25T13:55:54Z</time>
      </trkpt>
      <trkpt lat="45.12842" lon="5.91946">
        <ele>2103.74</ele>
        <time>2019-02-25T13:56:20Z</time>
      </trkpt>
      <trkpt lat="45.12847" lon="5.9192">
        <ele>2101.74</ele>
        <time>2019-02-25T14:08:19Z</time>
      </trkpt>
      <trkpt lat="45.12831" lon="5.91904">
        <ele>2103.74</ele>
        <time>2019-02-25T14:08:45Z</time>
      </trkpt>
      <trkpt lat="45.12817" lon="5.91888">
        <ele>2105.74</ele>
        <time>2019-02-25T14:09:29Z</time>
      </trkpt>
      <trkpt lat="45.12808" lon="5.91865">
        <ele>2111.74</ele>
        <time>2019-02-25T14:10:06Z</time>
      </trkpt>
      <trkpt lat="45.12797" lon="5.91843">
        <ele>2116.74</ele>
        <time>2019-02-25T14:10:38Z</time>
      </trkpt>
      <trkpt lat="45.12786" lon="5.91822">
        <ele>2120.74</ele>
        <time>2019-02-25T14:11:04Z</time>
      </trkpt>
      <trkpt lat="45.12774" lon="5.91801">
        <ele>2123.74</ele>
        <time>2019-02-25T14:11:26Z</time>
      </trkpt>
      <trkpt lat="45.12763" lon="5.9178">
        <ele>2124.74</ele>
        <time>2019-02-25T14:12:02Z</time>
      </trkpt>
      <trkpt lat="45.12752" lon="5.91759">
        <ele>2127.74</ele>
        <time>2019-02-25T14:12:24Z</time>
      </trkpt>
      <trkpt lat="45.12741" lon="5.91737">
        <ele>2130.74</ele>
        <time>2019-02-25T14:12:52Z</time>
      </trkpt>
      <trkpt lat="45.12733" lon="5.91712">
        <ele>2132.74</ele>
        <time>2019-02-25T14:13:12Z</time>
      </trkpt>
      <trkpt lat="45.12729" lon="5.91684">
        <ele>2132.74</ele>
        <time>2019-02-25T14:13:38Z</time>
      </trkpt>
      <trkpt lat="45.12722" lon="5.9166">
        <ele>2135.74</ele>
        <time>2019-02-25T14:14:00Z</time>
      </trkpt>
      <trkpt lat="45.12714" lon="5.91636">
        <ele>2140.74</ele>
        <time>2019-02-25T14:14:27Z</time>
      </trkpt>
      <trkpt lat="45.12704" lon="5.91615">
        <ele>2144.74</ele>
        <time>2019-02-25T14:14:55Z</time>
      </trkpt>
      <trkpt lat="45.12694" lon="5.91591">
        <ele>2146.74</ele>
        <time>2019-02-25T14:15:17Z</time>
      </trkpt>
      <trkpt lat="45.12698" lon="5.91566">
        <ele>2150.74</ele>
        <time>2019-02-25T14:15:39Z</time>
      </trkpt>
      <trkpt lat="45.12697" lon="5.9154">
        <ele>2150.74</ele>
        <time>2019-02-25T14:15:51Z</time>
      </trkpt>
      <trkpt lat="45.12694" lon="5.91515">
        <ele>2149.74</ele>
        <time>2019-02-25T14:16:07Z</time>
      </trkpt>
      <trkpt lat="45.12689" lon="5.9149">
        <ele>2149.74</ele>
        <time>2019-02-25T14:16:21Z</time>
      </trkpt>
      <trkpt lat="45.1268" lon="5.91464">
        <ele>2148.74</ele>
        <time>2019-02-25T14:16:35Z</time>
      </trkpt>
      <trkpt lat="45.12672" lon="5.91441">
        <ele>2147.74</ele>
        <time>2019-02-25T14:16:51Z</time>
      </trkpt>
      <trkpt lat="45.12661" lon="5.91418">
        <ele>2144.74</ele>
        <time>2019-02-25T14:17:09Z</time>
      </trkpt>
      <trkpt lat="45.12649" lon="5.91399">
        <ele>2147.74</ele>
        <time>2019-02-25T14:17:29Z</time>
      </trkpt>
      <trkpt lat="45.12639" lon="5.91377">
        <ele>2146.74</ele>
        <time>2019-02-25T14:17:49Z</time>
      </trkpt>
      <trkpt lat="45.12627" lon="5.91358">
        <ele>2149.74</ele>
        <time>2019-02-25T14:18:09Z</time>
      </trkpt>
      <trkpt lat="45.12612" lon="5.91341">
        <ele>2153.74</ele>
        <time>2019-02-25T14:19:15Z</time>
      </trkpt>
      <trkpt lat="45.12599" lon="5.91321">
        <ele>2156.74</ele>
        <time>2019-02-25T14:19:43Z</time>
      </trkpt>
      <trkpt lat="45.12586" lon="5.91302">
        <ele>2158.74</ele>
        <time>2019-02-25T14:20:09Z</time>
      </trkpt>
      <trkpt lat="45.12574" lon="5.91282">
        <ele>2159.74</ele>
        <time>2019-02-25T14:20:29Z</time>
      </trkpt>
      <trkpt lat="45.1256" lon="5.91263">
        <ele>2161.74</ele>
        <time>2019-02-25T14:20:53Z</time>
      </trkpt>
      <trkpt lat="45.12546" lon="5.91244">
        <ele>2164.74</ele>
        <time>2019-02-25T14:21:15Z</time>
      </trkpt>
      <trkpt lat="45.12532" lon="5.91227">
        <ele>2164.74</ele>
        <time>2019-02-25T14:21:37Z</time>
      </trkpt>
      <trkpt lat="45.12519" lon="5.91209">
        <ele>2166.74</ele>
        <time>2019-02-25T14:22:01Z</time>
      </trkpt>
      <trkpt lat="45.12505" lon="5.91191">
        <ele>2167.74</ele>
        <time>2019-02-25T14:22:31Z</time>
      </trkpt>
      <trkpt lat="45.12519" lon="5.91175">
        <ele>2170.74</ele>
        <time>2019-02-25T14:23:24Z</time>
      </trkpt>
      <trkpt lat="45.12533" lon="5.91155">
        <ele>2176.74</ele>
        <time>2019-02-25T14:23:52Z</time>
      </trkpt>
      <trkpt lat="45.12539" lon="5.91129">
        <ele>2176.74</ele>
        <time>2019-02-25T14:24:12Z</time>
      </trkpt>
      <trkpt lat="45.12548" lon="5.91105">
        <ele>2177.74</ele>
        <time>2019-02-25T14:24:34Z</time>
      </trkpt>
      <trkpt lat="45.12556" lon="5.9108">
        <ele>2180.74</ele>
        <time>2019-02-25T14:24:54Z</time>
      </trkpt>
      <trkpt lat="45.12565" lon="5.91055">
        <ele>2180.74</ele>
        <time>2019-02-25T14:25:12Z</time>
      </trkpt>
      <trkpt lat="45.12574" lon="5.91032">
        <ele>2179.74</ele>
        <time>2019-02-25T14:25:36Z</time>
      </trkpt>
      <trkpt lat="45.12583" lon="5.91008">
        <ele>2180.74</ele>
        <time>2019-02-25T14:25:56Z</time>
      </trkpt>
      <trkpt lat="45.1259" lon="5.90984">
        <ele>2180.74</ele>
        <time>2019-02-25T14:26:26Z</time>
      </trkpt>
      <trkpt lat="45.1259" lon="5.90955">
        <ele>2179.74</ele>
        <time>2019-02-25T14:26:44Z</time>
      </trkpt>
      <trkpt lat="45.12592" lon="5.9093">
        <ele>2179.74</ele>
        <time>2019-02-25T14:27:08Z</time>
      </trkpt>
      <trkpt lat="45.12592" lon="5.90904">
        <ele>2181.74</ele>
        <time>2019-02-25T14:27:32Z</time>
      </trkpt>
      <trkpt lat="45.12588" lon="5.90877">
        <ele>2184.74</ele>
        <time>2019-02-25T14:28:04Z</time>
      </trkpt>
      <trkpt lat="45.12582" lon="5.90852">
        <ele>2188.74</ele>
        <time>2019-02-25T14:28:36Z</time>
      </trkpt>
      <trkpt lat="45.12571" lon="5.9083">
        <ele>2192.74</ele>
        <time>2019-02-25T14:29:10Z</time>
      </trkpt>
      <trkpt lat="45.12561" lon="5.90806">
        <ele>2197.74</ele>
        <time>2019-02-25T14:29:58Z</time>
      </trkpt>
      <trkpt lat="45.12555" lon="5.90782">
        <ele>2202.74</ele>
        <time>2019-02-25T14:30:33Z</time>
      </trkpt>
      <trkpt lat="45.12552" lon="5.90756">
        <ele>2212.74</ele>
        <time>2019-02-25T14:31:43Z</time>
      </trkpt>
      <trkpt lat="45.12554" lon="5.9073">
        <ele>2221.74</ele>
        <time>2019-02-25T14:32:42Z</time>
      </trkpt>
      <trkpt lat="45.12564" lon="5.90708">
        <ele>2224.74</ele>
        <time>2019-02-25T14:33:10Z</time>
      </trkpt>
      <trkpt lat="45.12567" lon="5.90682">
        <ele>2225.74</ele>
        <time>2019-02-25T14:33:40Z</time>
      </trkpt>
      <trkpt lat="45.12564" lon="5.90656">
        <ele>2233.74</ele>
        <time>2019-02-25T14:34:14Z</time>
      </trkpt>
      <trkpt lat="45.12558" lon="5.90632">
        <ele>2235.74</ele>
        <time>2019-02-25T14:34:44Z</time>
      </trkpt>
      <trkpt lat="45.12553" lon="5.90605">
        <ele>2239.74</ele>
        <time>2019-02-25T14:35:12Z</time>
      </trkpt>
      <trkpt lat="45.12539" lon="5.90585">
        <ele>2242.74</ele>
        <time>2019-02-25T14:35:43Z</time>
      </trkpt>
      <trkpt lat="45.12537" lon="5.90558">
        <ele>2245.74</ele>
        <time>2019-02-25T14:36:07Z</time>
      </trkpt>
      <trkpt lat="45.12545" lon="5.90534">
        <ele>2247.74</ele>
        <time>2019-02-25T14:36:27Z</time>
      </trkpt>
      <trkpt lat="45.12545" lon="5.90506">
        <ele>2246.74</ele>
        <time>2019-02-25T14:36:47Z</time>
      </trkpt>
      <trkpt lat="45.12545" lon="5.9048">
        <ele>2245.74</ele>
        <time>2019-02-25T14:55:05Z</time>
      </trkpt>
      <trkpt lat="45.12543" lon="5.90446">
        <ele>2243.74</ele>
        <time>2019-02-25T14:55:13Z</time>
      </trkpt>
      <trkpt lat="45.12536" lon="5.90414">
        <ele>2241.74</ele>
        <time>2019-02-25T14:55:21Z</time>
      </trkpt>
      <trkpt lat="45.12529" lon="5.90384">
        <ele>2240.74</ele>
        <time>2019-02-25T14:55:27Z</time>
      </trkpt>
      <trkpt lat="45.12521" lon="5.90356">
        <ele>2240.74</ele>
        <time>2019-02-25T14:55:33Z</time>
      </trkpt>
      <trkpt lat="45.12516" lon="5.90322">
        <ele>2238.74</ele>
        <time>2019-02-25T14:55:39Z</time>
      </trkpt>
      <trkpt lat="45.12513" lon="5.90297">
        <ele>2236.74</ele>
        <time>2019-02-25T14:55:43Z</time>
      </trkpt>
      <trkpt lat="45.12505" lon="5.90269">
        <ele>2234.74</ele>
        <time>2019-02-25T14:55:47Z</time>
      </trkpt>
      <trkpt lat="45.12502" lon="5.90238">
        <ele>2233.74</ele>
        <time>2019-02-25T14:55:53Z</time>
      </trkpt>
      <trkpt lat="45.12504" lon="5.90193">
        <ele>2229.74</ele>
        <time>2019-02-25T14:55:59Z</time>
      </trkpt>
      <trkpt lat="45.12514" lon="5.90148">
        <ele>2221.74</ele>
        <time>2019-02-25T14:56:03Z</time>
      </trkpt>
      <trkpt lat="45.12519" lon="5.90111">
        <ele>2215.74</ele>
        <time>2019-02-25T14:56:07Z</time>
      </trkpt>
      <trkpt lat="45.12521" lon="5.90075">
        <ele>2207.74</ele>
        <time>2019-02-25T14:56:11Z</time>
      </trkpt>
      <trkpt lat="45.12524" lon="5.90038">
        <ele>2200.74</ele>
        <time>2019-02-25T14:56:15Z</time>
      </trkpt>
      <trkpt lat="45.12522" lon="5.89999">
        <ele>2190.74</ele>
        <time>2019-02-25T14:56:19Z</time>
      </trkpt>
      <trkpt lat="45.12526" lon="5.89966">
        <ele>2180.74</ele>
        <time>2019-02-25T14:56:23Z</time>
      </trkpt>
      <trkpt lat="45.12524" lon="5.8993">
        <ele>2171.74</ele>
        <time>2019-02-25T14:56:27Z</time>
      </trkpt>
      <trkpt lat="45.12517" lon="5.899">
        <ele>2163.74</ele>
        <time>2019-02-25T14:56:31Z</time>
      </trkpt>
      <trkpt lat="45.1251" lon="5.8987">
        <ele>2159.74</ele>
        <time>2019-02-25T14:56:35Z</time>
      </trkpt>
      <trkpt lat="45.12502" lon="5.89846">
        <ele>2150.74</ele>
        <time>2019-02-25T14:56:39Z</time>
      </trkpt>
      <trkpt lat="45.12488" lon="5.89815">
        <ele>2139.74</ele>
        <time>2019-02-25T14:56:45Z</time>
      </trkpt>
      <trkpt lat="45.12485" lon="5.89786">
        <ele>2126.74</ele>
        <time>2019-02-25T14:56:51Z</time>
      </trkpt>
      <trkpt lat="45.12486" lon="5.89756">
        <ele>2117.74</ele>
        <time>2019-02-25T14:56:57Z</time>
      </trkpt>
      <trkpt lat="45.12499" lon="5.89723">
        <ele>2103.74</ele>
        <time>2019-02-25T14:57:03Z</time>
      </trkpt>
      <trkpt lat="45.12505" lon="5.89696">
        <ele>2092.74</ele>
        <time>2019-02-25T14:57:07Z</time>
      </trkpt>
      <trkpt lat="45.12516" lon="5.89671">
        <ele>2072.74</ele>
        <time>2019-02-25T14:57:23Z</time>
      </trkpt>
      <trkpt lat="45.12536" lon="5.89651">
        <ele>2056.74</ele>
        <time>2019-02-25T14:57:31Z</time>
      </trkpt>
      <trkpt lat="45.12555" lon="5.89643">
        <ele>2046.74</ele>
        <time>2019-02-25T14:57:35Z</time>
      </trkpt>
      <trkpt lat="45.12557" lon="5.89608">
        <ele>2040.74</ele>
        <time>2019-02-25T14:57:41Z</time>
      </trkpt>
      <trkpt lat="45.12566" lon="5.89584">
        <ele>2029.74</ele>
        <time>2019-02-25T14:57:47Z</time>
      </trkpt>
      <trkpt lat="45.12586" lon="5.89587">
        <ele>2025.74</ele>
        <time>2019-02-25T14:57:51Z</time>
      </trkpt>
      <trkpt lat="45.12614" lon="5.8959">
        <ele>2019.74</ele>
        <time>2019-02-25T14:57:55Z</time>
      </trkpt>
      <trkpt lat="45.12631" lon="5.8956">
        <ele>2010.74</ele>
        <time>2019-02-25T14:57:59Z</time>
      </trkpt>
      <trkpt lat="45.12635" lon="5.89533">
        <ele>2001.74</ele>
        <time>2019-02-25T14:58:03Z</time>
      </trkpt>
      <trkpt lat="45.12635" lon="5.89507">
        <ele>1994.74</ele>
        <time>2019-02-25T14:58:06Z</time>
      </trkpt>
      <trkpt lat="45.12637" lon="5.89475">
        <ele>1986.74</ele>
        <time>2019-02-25T14:58:10Z</time>
      </trkpt>
      <trkpt lat="45.12643" lon="5.89447">
        <ele>1977.74</ele>
        <time>2019-02-25T14:58:14Z</time>
      </trkpt>
      <trkpt lat="45.12642" lon="5.8942">
        <ele>1968.74</ele>
        <time>2019-02-25T14:58:48Z</time>
      </trkpt>
      <trkpt lat="45.12647" lon="5.89387">
        <ele>1961.74</ele>
        <time>2019-02-25T14:58:54Z</time>
      </trkpt>
      <trkpt lat="45.12654" lon="5.89362">
        <ele>1957.74</ele>
        <time>2019-02-25T14:58:58Z</time>
      </trkpt>
      <trkpt lat="45.12667" lon="5.89324">
        <ele>1946.74</ele>
        <time>2019-02-25T14:59:02Z</time>
      </trkpt>
      <trkpt lat="45.12674" lon="5.893">
        <ele>1939.74</ele>
        <time>2019-02-25T14:59:04Z</time>
      </trkpt>
      <trkpt lat="45.12676" lon="5.89273">
        <ele>1930.74</ele>
        <time>2019-02-25T14:59:06Z</time>
      </trkpt>
      <trkpt lat="45.1268" lon="5.89241">
        <ele>1922.74</ele>
        <time>2019-02-25T14:59:10Z</time>
      </trkpt>
      <trkpt lat="45.12694" lon="5.89218">
        <ele>1909.74</ele>
        <time>2019-02-25T15:00:30Z</time>
      </trkpt>
      <trkpt lat="45.12704" lon="5.89185">
        <ele>1905.74</ele>
        <time>2019-02-25T15:00:34Z</time>
      </trkpt>
      <trkpt lat="45.12709" lon="5.89141">
        <ele>1896.74</ele>
        <time>2019-02-25T15:00:38Z</time>
      </trkpt>
      <trkpt lat="45.12708" lon="5.89085">
        <ele>1877.74</ele>
        <time>2019-02-25T15:00:42Z</time>
      </trkpt>
      <trkpt lat="45.12709" lon="5.8905">
        <ele>1870.74</ele>
        <time>2019-02-25T15:00:44Z</time>
      </trkpt>
      <trkpt lat="45.12711" lon="5.89023">
        <ele>1866.74</ele>
        <time>2019-02-25T15:00:46Z</time>
      </trkpt>
      <trkpt lat="45.1271" lon="5.88976">
        <ele>1858.74</ele>
        <time>2019-02-25T15:00:50Z</time>
      </trkpt>
      <trkpt lat="45.12711" lon="5.8895">
        <ele>1854.74</ele>
        <time>2019-02-25T15:00:52Z</time>
      </trkpt>
      <trkpt lat="45.12705" lon="5.88905">
        <ele>1842.74</ele>
        <time>2019-02-25T15:00:56Z</time>
      </trkpt>
      <trkpt lat="45.12708" lon="5.88874">
        <ele>1832.74</ele>
        <time>2019-02-25T15:00:58Z</time>
      </trkpt>
      <trkpt lat="45.12695" lon="5.8884">
        <ele>1820.74</ele>
        <time>2019-02-25T15:01:00Z</time>
      </trkpt>
      <trkpt lat="45.12681" lon="5.88804">
        <ele>1811.74</ele>
        <time>2019-02-25T15:01:02Z</time>
      </trkpt>
      <trkpt lat="45.12667" lon="5.88766">
        <ele>1805.74</ele>
        <time>2019-02-25T15:01:04Z</time>
      </trkpt>
      <trkpt lat="45.12655" lon="5.8873">
        <ele>1800.74</ele>
        <time>2019-02-25T15:01:06Z</time>
      </trkpt>
      <trkpt lat="45.1264" lon="5.88698">
        <ele>1796.74</ele>
        <time>2019-02-25T15:01:08Z</time>
      </trkpt>
      <trkpt lat="45.12628" lon="5.88667">
        <ele>1792.74</ele>
        <time>2019-02-25T15:01:10Z</time>
      </trkpt>
      <trkpt lat="45.12619" lon="5.88636">
        <ele>1789.74</ele>
        <time>2019-02-25T15:01:12Z</time>
      </trkpt>
      <trkpt lat="45.12614" lon="5.88606">
        <ele>1787.74</ele>
        <time>2019-02-25T15:01:14Z</time>
      </trkpt>
      <trkpt lat="45.126" lon="5.88583">
        <ele>1784.74</ele>
        <time>2019-02-25T15:01:16Z</time>
      </trkpt>
      <trkpt lat="45.12588" lon="5.88556">
        <ele>1778.74</ele>
        <time>2019-02-25T15:01:18Z</time>
      </trkpt>
      <trkpt lat="45.12571" lon="5.88532">
        <ele>1772.74</ele>
        <time>2019-02-25T15:01:20Z</time>
      </trkpt>
      <trkpt lat="45.12548" lon="5.88512">
        <ele>1767.74</ele>
        <time>2019-02-25T15:01:22Z</time>
      </trkpt>
      <trkpt lat="45.12529" lon="5.88491">
        <ele>1762.74</ele>
        <time>2019-02-25T15:01:24Z</time>
      </trkpt>
      <trkpt lat="45.12511" lon="5.88466">
        <ele>1758.74</ele>
        <time>2019-02-25T15:01:26Z</time>
      </trkpt>
      <trkpt lat="45.12494" lon="5.88441">
        <ele>1755.74</ele>
        <time>2019-02-25T15:01:28Z</time>
      </trkpt>
      <trkpt lat="45.12479" lon="5.88415">
        <ele>1751.74</ele>
        <time>2019-02-25T15:01:30Z</time>
      </trkpt>
      <trkpt lat="45.12465" lon="5.88389">
        <ele>1746.74</ele>
        <time>2019-02-25T15:01:32Z</time>
      </trkpt>
      <trkpt lat="45.12449" lon="5.88361">
        <ele>1742.74</ele>
        <time>2019-02-25T15:01:34Z</time>
      </trkpt>
      <trkpt lat="45.12436" lon="5.88334">
        <ele>1740.74</ele>
        <time>2019-02-25T15:01:36Z</time>
      </trkpt>
      <trkpt lat="45.12423" lon="5.8831">
        <ele>1737.74</ele>
        <time>2019-02-25T15:01:38Z</time>
      </trkpt>
      <trkpt lat="45.12413" lon="5.88287">
        <ele>1736.74</ele>
        <time>2019-02-25T15:01:40Z</time>
      </trkpt>
      <trkpt lat="45.12397" lon="5.88247">
        <ele>1734.74</ele>
        <time>2019-02-25T15:01:44Z</time>
      </trkpt>
      <trkpt lat="45.12386" lon="5.88206">
        <ele>1731.74</ele>
        <time>2019-02-25T15:01:48Z</time>
      </trkpt>
      <trkpt lat="45.12388" lon="5.88159">
        <ele>1724.74</ele>
        <time>2019-02-25T15:01:52Z</time>
      </trkpt>
      <trkpt lat="45.12395" lon="5.88118">
        <ele>1718.74</ele>
        <time>2019-02-25T15:01:56Z</time>
      </trkpt>
      <trkpt lat="45.12396" lon="5.88092">
        <ele>1713.74</ele>
        <time>2019-02-25T15:02:00Z</time>
      </trkpt>
      <trkpt lat="45.12409" lon="5.88067">
        <ele>1705.74</ele>
        <time>2019-02-25T15:02:04Z</time>
      </trkpt>
      <trkpt lat="45.12423" lon="5.88029">
        <ele>1690.74</ele>
        <time>2019-02-25T15:02:08Z</time>
      </trkpt>
      <trkpt lat="45.12428" lon="5.88">
        <ele>1684.74</ele>
        <time>2019-02-25T15:02:10Z</time>
      </trkpt>
      <trkpt lat="45.12426" lon="5.87972">
        <ele>1677.74</ele>
        <time>2019-02-25T15:02:12Z</time>
      </trkpt>
      <trkpt lat="45.1244" lon="5.87955">
        <ele>1673.74</ele>
        <time>2019-02-25T15:02:14Z</time>
      </trkpt>
      <trkpt lat="45.12424" lon="5.87909">
        <ele>1663.74</ele>
        <time>2019-02-25T15:02:18Z</time>
      </trkpt>
      <trkpt lat="45.12406" lon="5.87881">
        <ele>1657.74</ele>
        <time>2019-02-25T15:02:22Z</time>
      </trkpt>
      <trkpt lat="45.12409" lon="5.87852">
        <ele>1652.74</ele>
        <time>2019-02-25T15:02:26Z</time>
      </trkpt>
      <trkpt lat="45.12395" lon="5.87834">
        <ele>1645.74</ele>
        <time>2019-02-25T15:06:00Z</time>
      </trkpt>
      <trkpt lat="45.12376" lon="5.87837">
        <ele>1645.74</ele>
        <time>2019-02-25T15:06:18Z</time>
      </trkpt>
      <trkpt lat="45.1237" lon="5.87811">
        <ele>1640.74</ele>
        <time>2019-02-25T15:06:42Z</time>
      </trkpt>
      <trkpt lat="45.12377" lon="5.87786">
        <ele>1639.74</ele>
        <time>2019-02-25T15:07:36Z</time>
      </trkpt>
      <trkpt lat="45.12402" lon="5.87785">
        <ele>1641.74</ele>
        <time>2019-02-25T15:25:54Z</time>
      </trkpt>
      <trkpt lat="45.12424" lon="5.87764">
        <ele>1640.74</ele>
        <time>2019-02-25T15:25:58Z</time>
      </trkpt>
      <trkpt lat="45.12451" lon="5.87738">
        <ele>1638.74</ele>
        <time>2019-02-25T15:26:02Z</time>
      </trkpt>
      <trkpt lat="45.12472" lon="5.87706">
        <ele>1638.74</ele>
        <time>2019-02-25T15:26:06Z</time>
      </trkpt>
      <trkpt lat="45.12483" lon="5.87684">
        <ele>1637.74</ele>
        <time>2019-02-25T15:26:08Z</time>
      </trkpt>
      <trkpt lat="45.12495" lon="5.87659">
        <ele>1637.74</ele>
        <time>2019-02-25T15:26:10Z</time>
      </trkpt>
      <trkpt lat="45.12506" lon="5.87634">
        <ele>1638.74</ele>
        <time>2019-02-25T15:26:12Z</time>
      </trkpt>
      <trkpt lat="45.12517" lon="5.87611">
        <ele>1638.74</ele>
        <time>2019-02-25T15:26:14Z</time>
      </trkpt>
      <trkpt lat="45.12536" lon="5.87577">
        <ele>1639.74</ele>
        <time>2019-02-25T15:26:18Z</time>
      </trkpt>
      <trkpt lat="45.12552" lon="5.87563">
        <ele>1640.74</ele>
        <time>2019-02-25T15:26:22Z</time>
      </trkpt>
    </trkseg>
  </trk>
</gpx>